sensor_id;sensor_type;location;lat;lon;timestamp;noise_LAeq;noise_LA_min;noise_LA_max;noise_LA01;noise_LA95
58251;Laerm;51449;51.676;5.812;2023-07-31T00:00:31;51.68;42.31;62.23;;
58251;Laerm;51449;51.676;5.812;2023-07-31T00:02:53;54.73;39.53;70.33;;
58251;Laerm;51449;51.676;5.812;2023-07-31T00:05:17;54.28;41.64;68.35;;
58251;Laerm;51449;51.676;5.812;2023-07-31T00:07:39;48.61;40.91;56.95;;
58251;Laerm;51449;51.676;5.812;2023-07-31T00:10:00;55.88;42.97;70.82;;
58251;Laerm;51449;51.676;5.812;2023-07-31T00:12:22;60.86;43.56;76.25;;
58251;Laerm;51449;51.676;5.812;2023-07-31T00:14:45;58.78;40.62;75.07;;
58251;Laerm;51449;51.676;5.812;2023-07-31T00:17:07;58.07;45.69;71.77;;
58251;Laerm;51449;51.676;5.812;2023-07-31T00:19:28;63.06;43.13;79.64;;
58251;Laerm;51449;51.676;5.812;2023-07-31T00:21:50;50.37;41.46;60.47;;
58251;Laerm;51449;51.676;5.812;2023-07-31T00:24:12;57.25;38.79;72.17;;
58251;Laerm;51449;51.676;5.812;2023-07-31T00:26:34;47.61;40.53;53.24;;
58251;Laerm;51449;51.676;5.812;2023-07-31T00:28:55;55.49;42.54;69.28;;
58251;Laerm;51449;51.676;5.812;2023-07-31T00:31:17;50.86;42.70;60.99;;
58251;Laerm;51449;51.676;5.812;2023-07-31T00:33:39;53.27;40.67;69.31;;
58251;Laerm;51449;51.676;5.812;2023-07-31T00:36:00;51.51;42.46;67.48;;
58251;Laerm;51449;51.676;5.812;2023-07-31T00:38:22;49.62;40.12;59.01;;
58251;Laerm;51449;51.676;5.812;2023-07-31T00:40:44;52.20;40.47;61.85;;
58251;Laerm;51449;51.676;5.812;2023-07-31T00:43:05;58.34;42.23;73.91;;
58251;Laerm;51449;51.676;5.812;2023-07-31T00:45:29;53.14;40.57;68.79;;
58251;Laerm;51449;51.676;5.812;2023-07-31T00:47:51;52.45;43.61;60.48;;
58251;Laerm;51449;51.676;5.812;2023-07-31T00:50:14;53.59;41.69;68.72;;
58251;Laerm;51449;51.676;5.812;2023-07-31T00:52:36;56.06;40.37;68.45;;
58251;Laerm;51449;51.676;5.812;2023-07-31T00:54:59;53.25;42.82;64.67;;
58251;Laerm;51449;51.676;5.812;2023-07-31T00:57:21;60.32;39.00;77.58;;
58251;Laerm;51449;51.676;5.812;2023-07-31T00:59:45;52.05;41.39;65.01;;
58251;Laerm;51449;51.676;5.812;2023-07-31T01:02:09;49.16;40.99;57.71;;
58251;Laerm;51449;51.676;5.812;2023-07-31T01:04:32;57.34;41.75;70.40;;
58251;Laerm;51449;51.676;5.812;2023-07-31T01:07:01;57.48;41.74;69.26;;
58251;Laerm;51449;51.676;5.812;2023-07-31T01:09:44;56.25;39.42;71.61;;
58251;Laerm;51449;51.676;5.812;2023-07-31T01:12:09;57.49;41.54;72.82;;
58251;Laerm;51449;51.676;5.812;2023-07-31T01:14:34;57.54;42.60;71.38;;
58251;Laerm;51449;51.676;5.812;2023-07-31T01:16:56;58.10;40.04;72.75;;
58251;Laerm;51449;51.676;5.812;2023-07-31T01:19:23;61.06;39.91;74.56;;
58251;Laerm;51449;51.676;5.812;2023-07-31T01:28:05;57.84;39.72;71.78;;
58251;Laerm;51449;51.676;5.812;2023-07-31T01:30:40;57.72;40.71;71.92;;
58251;Laerm;51449;51.676;5.812;2023-07-31T01:33:03;47.13;40.85;55.68;;
58251;Laerm;51449;51.676;5.812;2023-07-31T01:35:28;56.54;42.25;69.38;;
58251;Laerm;51449;51.676;5.812;2023-07-31T01:37:52;58.12;39.30;72.44;;
58251;Laerm;51449;51.676;5.812;2023-07-31T01:40:15;45.38;39.05;51.69;;
58251;Laerm;51449;51.676;5.812;2023-07-31T01:42:37;57.52;42.98;69.60;;
58251;Laerm;51449;51.676;5.812;2023-07-31T01:44:59;50.30;39.95;58.68;;
58251;Laerm;51449;51.676;5.812;2023-07-31T01:47:20;53.20;39.94;69.69;;
58251;Laerm;51449;51.676;5.812;2023-07-31T01:49:42;57.47;40.33;71.48;;
58251;Laerm;51449;51.676;5.812;2023-07-31T01:52:05;50.61;41.37;59.35;;
58251;Laerm;51449;51.676;5.812;2023-07-31T01:54:26;51.30;42.38;65.71;;
58251;Laerm;51449;51.676;5.812;2023-07-31T01:56:48;59.55;43.42;74.20;;
58251;Laerm;51449;51.676;5.812;2023-07-31T01:59:10;60.77;43.97;77.08;;
58251;Laerm;51449;51.676;5.812;2023-07-31T02:01:31;60.14;43.79;72.51;;
58251;Laerm;51449;51.676;5.812;2023-07-31T02:03:53;52.99;39.85;67.40;;
58251;Laerm;51449;51.676;5.812;2023-07-31T02:06:17;54.22;45.21;61.90;;
58251;Laerm;51449;51.676;5.812;2023-07-31T02:08:38;64.89;46.16;78.31;;
58251;Laerm;51449;51.676;5.812;2023-07-31T02:11:00;62.46;41.31;73.38;;
58251;Laerm;51449;51.676;5.812;2023-07-31T02:13:22;57.79;46.02;73.15;;
58251;Laerm;51449;51.676;5.812;2023-07-31T02:15:45;51.61;41.46;60.44;;
58251;Laerm;51449;51.676;5.812;2023-07-31T02:18:07;63.99;44.62;78.41;;
58251;Laerm;51449;51.676;5.812;2023-07-31T02:20:28;47.86;41.20;54.26;;
58251;Laerm;51449;51.676;5.812;2023-07-31T02:22:50;57.45;46.50;68.88;;
58251;Laerm;51449;51.676;5.812;2023-07-31T02:25:12;54.87;44.33;68.81;;
58251;Laerm;51449;51.676;5.812;2023-07-31T02:27:33;59.26;44.70;74.32;;
58251;Laerm;51449;51.676;5.812;2023-07-31T02:29:55;52.53;38.60;66.80;;
58251;Laerm;51449;51.676;5.812;2023-07-31T02:32:17;62.69;45.20;73.65;;
58251;Laerm;51449;51.676;5.812;2023-07-31T02:34:39;54.05;41.95;66.65;;
58251;Laerm;51449;51.676;5.812;2023-07-31T02:37:01;61.82;41.74;71.96;;
58251;Laerm;51449;51.676;5.812;2023-07-31T02:39:23;58.23;43.19;70.91;;
58251;Laerm;51449;51.676;5.812;2023-07-31T02:41:44;58.43;42.77;71.60;;
58251;Laerm;51449;51.676;5.812;2023-07-31T02:44:06;54.40;40.61;70.50;;
58251;Laerm;51449;51.676;5.812;2023-07-31T02:46:28;59.11;42.68;73.81;;
58251;Laerm;51449;51.676;5.812;2023-07-31T02:48:50;57.19;41.80;72.49;;
58251;Laerm;51449;51.676;5.812;2023-07-31T02:51:12;61.50;43.45;73.90;;
58251;Laerm;51449;51.676;5.812;2023-07-31T02:53:34;57.40;41.87;70.94;;
58251;Laerm;51449;51.676;5.812;2023-07-31T02:55:55;55.57;39.38;71.97;;
58251;Laerm;51449;51.676;5.812;2023-07-31T02:58:17;58.04;40.11;74.56;;
58251;Laerm;51449;51.676;5.812;2023-07-31T03:00:45;59.91;40.07;71.83;;
58251;Laerm;51449;51.676;5.812;2023-07-31T03:03:07;59.90;40.28;72.68;;
58251;Laerm;51449;51.676;5.812;2023-07-31T03:05:29;59.09;40.42;73.42;;
58251;Laerm;51449;51.676;5.812;2023-07-31T03:07:50;62.49;43.69;75.85;;
58251;Laerm;51449;51.676;5.812;2023-07-31T03:10:12;61.01;44.72;74.63;;
58251;Laerm;51449;51.676;5.812;2023-07-31T03:12:34;58.54;41.66;72.60;;
58251;Laerm;51449;51.676;5.812;2023-07-31T03:14:56;61.79;45.78;72.29;;
58251;Laerm;51449;51.676;5.812;2023-07-31T03:17:17;62.86;43.73;72.61;;
58251;Laerm;51449;51.676;5.812;2023-07-31T03:19:39;57.20;41.75;70.08;;
58251;Laerm;51449;51.676;5.812;2023-07-31T03:22:01;56.94;41.67;67.17;;
58251;Laerm;51449;51.676;5.812;2023-07-31T03:24:23;64.66;45.19;77.68;;
58251;Laerm;51449;51.676;5.812;2023-07-31T03:26:45;63.69;41.48;81.62;;
58251;Laerm;51449;51.676;5.812;2023-07-31T03:29:07;64.02;41.07;73.84;;
58251;Laerm;51449;51.676;5.812;2023-07-31T03:31:29;63.09;36.26;75.16;;
58251;Laerm;51449;51.676;5.812;2023-07-31T03:33:51;61.25;39.64;72.90;;
58251;Laerm;51449;51.676;5.812;2023-07-31T03:36:13;61.13;44.48;74.53;;
58251;Laerm;51449;51.676;5.812;2023-07-31T03:38:34;62.52;44.50;75.33;;
58251;Laerm;51449;51.676;5.812;2023-07-31T03:40:57;59.14;37.34;73.30;;
58251;Laerm;51449;51.676;5.812;2023-07-31T03:43:20;54.90;38.89;67.23;;
58251;Laerm;51449;51.676;5.812;2023-07-31T03:45:42;61.78;41.98;73.90;;
58251;Laerm;51449;51.676;5.812;2023-07-31T03:48:04;61.23;42.75;72.61;;
58251;Laerm;51449;51.676;5.812;2023-07-31T03:50:26;64.17;42.42;76.49;;
58251;Laerm;51449;51.676;5.812;2023-07-31T03:52:48;59.03;39.48;70.12;;
58251;Laerm;51449;51.676;5.812;2023-07-31T03:55:09;60.80;40.09;74.37;;
58251;Laerm;51449;51.676;5.812;2023-07-31T03:57:31;61.72;39.33;76.36;;
58251;Laerm;51449;51.676;5.812;2023-07-31T03:59:54;64.58;44.79;76.72;;
58251;Laerm;51449;51.676;5.812;2023-07-31T04:02:15;62.24;42.60;74.83;;
58251;Laerm;51449;51.676;5.812;2023-07-31T04:04:37;59.22;39.52;71.24;;
58251;Laerm;51449;51.676;5.812;2023-07-31T04:06:59;61.19;39.71;72.14;;
58251;Laerm;51449;51.676;5.812;2023-07-31T04:09:21;62.05;39.46;73.54;;
58251;Laerm;51449;51.676;5.812;2023-07-31T04:11:42;57.77;43.10;70.47;;
58251;Laerm;51449;51.676;5.812;2023-07-31T04:14:04;64.15;44.06;74.43;;
58251;Laerm;51449;51.676;5.812;2023-07-31T04:16:26;64.61;41.48;76.29;;
58251;Laerm;51449;51.676;5.812;2023-07-31T04:18:48;59.06;41.51;72.56;;
58251;Laerm;51449;51.676;5.812;2023-07-31T04:21:10;61.13;43.98;72.82;;
58251;Laerm;51449;51.676;5.812;2023-07-31T04:23:31;62.75;44.28;72.90;;
58251;Laerm;51449;51.676;5.812;2023-07-31T04:25:53;64.55;46.12;74.07;;
58251;Laerm;51449;51.676;5.812;2023-07-31T04:28:15;61.16;39.94;71.47;;
58251;Laerm;51449;51.676;5.812;2023-07-31T04:30:36;63.75;47.56;73.79;;
58251;Laerm;51449;51.676;5.812;2023-07-31T04:32:58;62.11;42.04;71.64;;
58251;Laerm;51449;51.676;5.812;2023-07-31T04:35:20;62.76;46.24;75.41;;
58251;Laerm;51449;51.676;5.812;2023-07-31T04:37:42;67.52;45.35;77.76;;
58251;Laerm;51449;51.676;5.812;2023-07-31T04:40:04;63.53;40.13;73.61;;
58251;Laerm;51449;51.676;5.812;2023-07-31T04:42:26;60.51;40.55;72.19;;
58251;Laerm;51449;51.676;5.812;2023-07-31T04:44:47;64.12;42.75;73.93;;
58251;Laerm;51449;51.676;5.812;2023-07-31T04:47:09;64.24;44.37;74.74;;
58251;Laerm;51449;51.676;5.812;2023-07-31T04:49:32;64.56;48.59;74.46;;
58251;Laerm;51449;51.676;5.812;2023-07-31T04:51:54;60.97;40.37;71.92;;
58251;Laerm;51449;51.676;5.812;2023-07-31T04:54:16;60.51;40.02;73.11;;
58251;Laerm;51449;51.676;5.812;2023-07-31T04:56:38;65.00;42.63;77.53;;
58251;Laerm;51449;51.676;5.812;2023-07-31T04:59:00;66.05;42.51;75.42;;
58251;Laerm;51449;51.676;5.812;2023-07-31T05:01:21;66.11;41.39;74.61;;
58251;Laerm;51449;51.676;5.812;2023-07-31T05:03:43;62.74;44.14;71.73;;
58251;Laerm;51449;51.676;5.812;2023-07-31T05:06:05;63.85;47.68;75.18;;
58251;Laerm;51449;51.676;5.812;2023-07-31T05:08:27;63.98;41.41;72.28;;
58251;Laerm;51449;51.676;5.812;2023-07-31T05:10:49;64.47;45.59;72.95;;
58251;Laerm;51449;51.676;5.812;2023-07-31T05:13:10;65.03;42.07;75.55;;
58251;Laerm;51449;51.676;5.812;2023-07-31T05:15:32;62.73;45.08;73.54;;
58251;Laerm;51449;51.676;5.812;2023-07-31T05:17:54;63.46;40.93;76.78;;
58251;Laerm;51449;51.676;5.812;2023-07-31T05:20:16;63.42;41.80;75.18;;
58251;Laerm;51449;51.676;5.812;2023-07-31T05:22:38;63.68;39.94;72.70;;
58251;Laerm;51449;51.676;5.812;2023-07-31T05:24:59;63.54;47.73;72.57;;
58251;Laerm;51449;51.676;5.812;2023-07-31T05:27:21;61.10;39.96;71.02;;
58251;Laerm;51449;51.676;5.812;2023-07-31T05:29:43;64.67;48.14;72.80;;
58251;Laerm;51449;51.676;5.812;2023-07-31T05:32:05;64.87;47.02;77.16;;
58251;Laerm;51449;51.676;5.812;2023-07-31T05:34:27;66.05;49.39;74.22;;
58251;Laerm;51449;51.676;5.812;2023-07-31T05:36:49;61.90;48.17;71.87;;
58251;Laerm;51449;51.676;5.812;2023-07-31T05:39:11;67.86;53.90;75.44;;
58251;Laerm;51449;51.676;5.812;2023-07-31T05:41:32;68.11;56.07;74.92;;
58251;Laerm;51449;51.676;5.812;2023-07-31T05:43:54;69.13;56.27;78.95;;
58251;Laerm;51449;51.676;5.812;2023-07-31T05:46:16;68.76;52.37;76.99;;
58251;Laerm;51449;51.676;5.812;2023-07-31T05:48:38;70.33;48.91;80.55;;
58251;Laerm;51449;51.676;5.812;2023-07-31T05:51:00;66.68;45.47;77.21;;
58251;Laerm;51449;51.676;5.812;2023-07-31T05:53:21;71.57;48.18;84.23;;
58251;Laerm;51449;51.676;5.812;2023-07-31T05:55:43;67.54;45.80;76.58;;
58251;Laerm;51449;51.676;5.812;2023-07-31T05:58:05;69.91;53.89;78.90;;
58251;Laerm;51449;51.676;5.812;2023-07-31T06:00:27;71.26;49.07;80.32;;
58251;Laerm;51449;51.676;5.812;2023-07-31T06:02:49;70.26;57.32;79.21;;
58251;Laerm;51449;51.676;5.812;2023-07-31T06:05:11;73.87;57.82;84.08;;
58251;Laerm;51449;51.676;5.812;2023-07-31T06:07:33;72.14;56.69;80.54;;
58251;Laerm;51449;51.676;5.812;2023-07-31T06:09:55;72.18;56.65;80.14;;
58251;Laerm;51449;51.676;5.812;2023-07-31T06:12:16;74.69;56.15;82.81;;
58251;Laerm;51449;51.676;5.812;2023-07-31T06:14:40;74.31;55.77;84.45;;
58251;Laerm;51449;51.676;5.812;2023-07-31T06:17:02;73.12;58.04;82.12;;
58251;Laerm;51449;51.676;5.812;2023-07-31T06:19:24;74.46;53.02;84.93;;
58251;Laerm;51449;51.676;5.812;2023-07-31T06:21:45;74.38;52.98;84.31;;
58251;Laerm;51449;51.676;5.812;2023-07-31T06:24:08;71.78;50.25;80.31;;
58251;Laerm;51449;51.676;5.812;2023-07-31T06:26:29;72.99;51.42;81.82;;
58251;Laerm;51449;51.676;5.812;2023-07-31T06:28:51;69.29;49.08;80.09;;
58251;Laerm;51449;51.676;5.812;2023-07-31T06:31:13;71.66;52.27;80.13;;
58251;Laerm;51449;51.676;5.812;2023-07-31T06:33:35;71.52;47.99;82.42;;
58251;Laerm;51449;51.676;5.812;2023-07-31T06:35:57;71.56;45.27;79.89;;
58251;Laerm;51449;51.676;5.812;2023-07-31T06:38:24;71.79;54.29;80.61;;
58251;Laerm;51449;51.676;5.812;2023-07-31T06:40:46;71.94;50.79;78.68;;
58251;Laerm;51449;51.676;5.812;2023-07-31T06:43:08;73.12;55.11;79.88;;
58251;Laerm;51449;51.676;5.812;2023-07-31T06:45:29;72.50;54.01;80.03;;
58251;Laerm;51449;51.676;5.812;2023-07-31T06:47:51;72.20;52.25;83.14;;
58251;Laerm;51449;51.676;5.812;2023-07-31T06:50:13;70.54;50.41;80.45;;
58251;Laerm;51449;51.676;5.812;2023-07-31T06:52:35;71.38;48.71;79.05;;
58251;Laerm;51449;51.676;5.812;2023-07-31T06:55:16;72.20;51.11;81.28;;
58251;Laerm;51449;51.676;5.812;2023-07-31T06:57:41;70.84;53.98;80.71;;
58251;Laerm;51449;51.676;5.812;2023-07-31T07:00:03;72.66;53.24;81.76;;
58251;Laerm;51449;51.676;5.812;2023-07-31T07:02:25;70.83;55.65;81.32;;
58251;Laerm;51449;51.676;5.812;2023-07-31T07:04:49;69.65;47.31;79.78;;
58251;Laerm;51449;51.676;5.812;2023-07-31T07:07:11;69.76;46.55;78.42;;
58251;Laerm;51449;51.676;5.812;2023-07-31T07:09:32;69.79;46.34;81.03;;
58251;Laerm;51449;51.676;5.812;2023-07-31T07:11:54;70.30;47.93;80.38;;
58251;Laerm;51449;51.676;5.812;2023-07-31T07:14:16;68.15;48.34;78.25;;
58251;Laerm;51449;51.676;5.812;2023-07-31T07:16:38;70.36;51.04;81.90;;
58251;Laerm;51449;51.676;5.812;2023-07-31T07:19:03;69.91;49.78;80.52;;
58251;Laerm;51449;51.676;5.812;2023-07-31T07:21:26;71.99;48.98;81.67;;
58251;Laerm;51449;51.676;5.812;2023-07-31T07:23:47;69.35;45.05;80.95;;
58251;Laerm;51449;51.676;5.812;2023-07-31T07:26:09;74.30;57.57;83.70;;
58251;Laerm;51449;51.676;5.812;2023-07-31T07:28:31;68.92;47.41;81.67;;
58251;Laerm;51449;51.676;5.812;2023-07-31T07:30:53;72.70;48.76;82.09;;
58251;Laerm;51449;51.676;5.812;2023-07-31T07:33:18;71.59;50.66;83.66;;
58251;Laerm;51449;51.676;5.812;2023-07-31T07:35:40;68.84;45.43;79.24;;
58251;Laerm;51449;51.676;5.812;2023-07-31T07:38:03;70.16;48.34;79.55;;
58251;Laerm;51449;51.676;5.812;2023-07-31T07:40:25;70.95;46.56;81.00;;
58251;Laerm;51449;51.676;5.812;2023-07-31T07:42:47;69.15;45.19;80.05;;
58251;Laerm;51449;51.676;5.812;2023-07-31T07:45:09;72.65;48.16;82.70;;
58251;Laerm;51449;51.676;5.812;2023-07-31T07:47:31;69.15;50.11;81.09;;
58251;Laerm;51449;51.676;5.812;2023-07-31T07:49:52;66.90;45.58;75.97;;
58251;Laerm;51449;51.676;5.812;2023-07-31T07:52:14;71.06;49.34;79.03;;
58251;Laerm;51449;51.676;5.812;2023-07-31T07:54:36;68.60;48.02;79.89;;
58251;Laerm;51449;51.676;5.812;2023-07-31T07:56:58;67.93;50.31;80.28;;
58251;Laerm;51449;51.676;5.812;2023-07-31T07:59:20;68.53;47.38;77.97;;
58251;Laerm;51449;51.676;5.812;2023-07-31T08:01:41;68.88;50.48;81.89;;
58251;Laerm;51449;51.676;5.812;2023-07-31T08:04:03;67.92;47.39;78.07;;
58251;Laerm;51449;51.676;5.812;2023-07-31T08:06:25;70.98;50.63;81.04;;
58251;Laerm;51449;51.676;5.812;2023-07-31T08:08:47;68.65;48.54;79.90;;
58251;Laerm;51449;51.676;5.812;2023-07-31T08:11:09;69.76;50.19;78.37;;
58251;Laerm;51449;51.676;5.812;2023-07-31T08:13:31;70.82;55.57;79.14;;
58251;Laerm;51449;51.676;5.812;2023-07-31T08:15:52;67.39;45.48;77.84;;
58251;Laerm;51449;51.676;5.812;2023-07-31T08:18:14;69.50;49.86;78.54;;
58251;Laerm;51449;51.676;5.812;2023-07-31T08:20:37;67.56;48.28;76.31;;
58251;Laerm;51449;51.676;5.812;2023-07-31T08:22:59;67.47;47.24;82.22;;
58251;Laerm;51449;51.676;5.812;2023-07-31T08:25:21;69.44;46.91;79.47;;
58251;Laerm;51449;51.676;5.812;2023-07-31T08:27:43;68.13;44.02;79.23;;
58251;Laerm;51449;51.676;5.812;2023-07-31T08:30:06;67.05;45.24;77.31;;
58251;Laerm;51449;51.676;5.812;2023-07-31T08:32:28;70.14;51.96;78.94;;
58251;Laerm;51449;51.676;5.812;2023-07-31T08:34:50;69.86;50.81;79.61;;
58251;Laerm;51449;51.676;5.812;2023-07-31T08:37:11;67.81;49.56;77.54;;
58251;Laerm;51449;51.676;5.812;2023-07-31T08:39:33;71.91;49.12;80.83;;
58251;Laerm;51449;51.676;5.812;2023-07-31T08:41:59;70.50;50.84;81.40;;
58251;Laerm;51449;51.676;5.812;2023-07-31T08:44:21;67.30;51.33;78.08;;
58251;Laerm;51449;51.676;5.812;2023-07-31T08:46:44;70.03;50.75;80.14;;
58251;Laerm;51449;51.676;5.812;2023-07-31T08:49:09;72.03;48.41;81.46;;
58251;Laerm;51449;51.676;5.812;2023-07-31T08:51:34;71.61;48.22;80.46;;
58251;Laerm;51449;51.676;5.812;2023-07-31T08:53:56;69.39;49.04;80.59;;
58251;Laerm;51449;51.676;5.812;2023-07-31T08:56:20;69.36;48.76;80.33;;
58251;Laerm;51449;51.676;5.812;2023-07-31T08:58:43;70.55;50.58;84.96;;
58251;Laerm;51449;51.676;5.812;2023-07-31T09:01:07;68.01;48.57;76.62;;
58251;Laerm;51449;51.676;5.812;2023-07-31T09:03:34;70.32;48.07;78.62;;
58251;Laerm;51449;51.676;5.812;2023-07-31T09:05:57;70.33;51.35;89.38;;
58251;Laerm;51449;51.676;5.812;2023-07-31T09:08:22;69.08;47.58;79.92;;
58251;Laerm;51449;51.676;5.812;2023-07-31T09:10:45;70.57;50.37;81.76;;
58251;Laerm;51449;51.676;5.812;2023-07-31T09:13:14;70.65;47.98;79.05;;
58251;Laerm;51449;51.676;5.812;2023-07-31T09:15:36;65.17;49.00;75.66;;
58251;Laerm;51449;51.676;5.812;2023-07-31T09:18:01;69.57;48.52;79.87;;
58251;Laerm;51449;51.676;5.812;2023-07-31T09:20:23;71.85;56.22;82.50;;
58251;Laerm;51449;51.676;5.812;2023-07-31T09:22:46;72.89;57.71;84.98;;
58251;Laerm;51449;51.676;5.812;2023-07-31T09:25:25;68.92;50.26;77.22;;
58251;Laerm;51449;51.676;5.812;2023-07-31T09:27:56;69.01;46.52;79.81;;
58251;Laerm;51449;51.676;5.812;2023-07-31T09:30:19;68.67;48.13;78.16;;
58251;Laerm;51449;51.676;5.812;2023-07-31T09:32:43;69.00;45.54;79.03;;
58251;Laerm;51449;51.676;5.812;2023-07-31T09:35:30;69.61;49.13;79.08;;
58251;Laerm;51449;51.676;5.812;2023-07-31T09:37:57;69.85;51.14;79.04;;
58251;Laerm;51449;51.676;5.812;2023-07-31T09:40:28;67.70;42.81;78.66;;
58251;Laerm;51449;51.676;5.812;2023-07-31T09:42:50;70.75;50.10;80.32;;
58251;Laerm;51449;51.676;5.812;2023-07-31T09:45:13;66.75;46.41;79.38;;
58251;Laerm;51449;51.676;5.812;2023-07-31T09:47:47;70.68;47.59;80.24;;
58251;Laerm;51449;51.676;5.812;2023-07-31T09:50:12;69.36;47.73;80.73;;
58251;Laerm;51449;51.676;5.812;2023-07-31T09:52:38;67.03;46.66;83.22;;
58251;Laerm;51449;51.676;5.812;2023-07-31T09:55:00;66.92;46.41;76.47;;
58251;Laerm;51449;51.676;5.812;2023-07-31T09:57:22;67.30;50.29;76.46;;
58251;Laerm;51449;51.676;5.812;2023-07-31T09:59:48;67.55;49.34;79.71;;
58251;Laerm;51449;51.676;5.812;2023-07-31T10:02:18;68.44;49.52;75.74;;
58251;Laerm;51449;51.676;5.812;2023-07-31T10:04:44;67.69;50.02;77.15;;
58251;Laerm;51449;51.676;5.812;2023-07-31T10:07:07;67.08;51.68;74.98;;
58251;Laerm;51449;51.676;5.812;2023-07-31T10:09:31;64.74;51.83;75.52;;
58251;Laerm;51449;51.676;5.812;2023-07-31T10:12:00;67.71;41.24;77.43;;
58251;Laerm;51449;51.676;5.812;2023-07-31T10:14:24;66.67;49.43;75.03;;
58251;Laerm;51449;51.676;5.812;2023-07-31T10:16:48;65.26;46.94;73.44;;
58251;Laerm;51449;51.676;5.812;2023-07-31T10:19:11;64.56;45.14;73.00;;
58251;Laerm;51449;51.676;5.812;2023-07-31T10:21:33;67.29;51.21;75.55;;
58251;Laerm;51449;51.676;5.812;2023-07-31T10:23:57;66.49;46.47;75.33;;
58251;Laerm;51449;51.676;5.812;2023-07-31T10:26:19;67.21;49.31;75.66;;
58251;Laerm;51449;51.676;5.812;2023-07-31T10:28:42;65.69;50.52;73.56;;
58251;Laerm;51449;51.676;5.812;2023-07-31T10:31:05;66.15;51.87;74.69;;
58251;Laerm;51449;51.676;5.812;2023-07-31T10:33:28;62.19;47.90;71.94;;
58251;Laerm;51449;51.676;5.812;2023-07-31T10:35:50;66.48;46.47;76.02;;
58251;Laerm;51449;51.676;5.812;2023-07-31T10:38:15;67.94;53.41;75.32;;
58251;Laerm;51449;51.676;5.812;2023-07-31T10:40:37;66.86;46.88;74.20;;
58251;Laerm;51449;51.676;5.812;2023-07-31T10:42:59;65.23;46.43;76.53;;
58251;Laerm;51449;51.676;5.812;2023-07-31T10:45:37;65.81;47.66;79.58;;
58251;Laerm;51449;51.676;5.812;2023-07-31T10:48:06;71.91;47.31;88.34;;
58251;Laerm;51449;51.676;5.812;2023-07-31T10:50:37;66.98;46.66;76.68;;
58251;Laerm;51449;51.676;5.812;2023-07-31T10:53:00;65.73;47.06;73.92;;
58251;Laerm;51449;51.676;5.812;2023-07-31T10:55:39;65.91;47.93;73.72;;
58251;Laerm;51449;51.676;5.812;2023-07-31T10:58:08;65.06;44.69;74.82;;
58251;Laerm;51449;51.676;5.812;2023-07-31T11:00:30;65.39;47.30;73.27;;
58251;Laerm;51449;51.676;5.812;2023-07-31T11:03:04;66.39;50.95;74.72;;
58251;Laerm;51449;51.676;5.812;2023-07-31T11:06:13;66.53;47.59;76.58;;
58251;Laerm;51449;51.676;5.812;2023-07-31T11:08:47;64.22;48.38;73.82;;
58251;Laerm;51449;51.676;5.812;2023-07-31T11:11:12;65.12;44.04;75.28;;
58251;Laerm;51449;51.676;5.812;2023-07-31T11:13:47;64.40;45.45;72.68;;
58251;Laerm;51449;51.676;5.812;2023-07-31T11:16:13;65.34;42.41;75.71;;
58251;Laerm;51449;51.676;5.812;2023-07-31T11:18:35;64.86;42.68;72.40;;
58251;Laerm;51449;51.676;5.812;2023-07-31T11:20:58;62.25;45.19;71.51;;
58251;Laerm;51449;51.676;5.812;2023-07-31T11:23:21;67.28;50.65;77.15;;
58251;Laerm;51449;51.676;5.812;2023-07-31T11:25:44;63.92;48.81;76.45;;
58251;Laerm;51449;51.676;5.812;2023-07-31T11:28:13;66.52;54.22;76.32;;
58251;Laerm;51449;51.676;5.812;2023-07-31T11:30:35;67.63;54.22;75.82;;
58251;Laerm;51449;51.676;5.812;2023-07-31T11:32:57;67.69;51.05;76.79;;
58251;Laerm;51449;51.676;5.812;2023-07-31T11:35:19;66.14;49.80;75.90;;
58251;Laerm;51449;51.676;5.812;2023-07-31T11:37:43;67.34;53.67;75.16;;
58251;Laerm;51449;51.676;5.812;2023-07-31T11:40:05;67.05;52.14;76.17;;
58251;Laerm;51449;51.676;5.812;2023-07-31T11:42:27;68.59;55.56;77.72;;
58251;Laerm;51449;51.676;5.812;2023-07-31T11:44:49;66.15;51.56;75.75;;
58251;Laerm;51449;51.676;5.812;2023-07-31T11:47:11;67.13;50.06;75.29;;
58251;Laerm;51449;51.676;5.812;2023-07-31T11:49:36;66.63;53.38;77.93;;
58251;Laerm;51449;51.676;5.812;2023-07-31T11:51:58;66.93;48.04;74.96;;
58251;Laerm;51449;51.676;5.812;2023-07-31T11:54:20;67.49;53.09;80.60;;
58251;Laerm;51449;51.676;5.812;2023-07-31T11:56:43;67.01;46.86;76.22;;
58251;Laerm;51449;51.676;5.812;2023-07-31T11:59:05;65.59;52.62;72.29;;
58251;Laerm;51449;51.676;5.812;2023-07-31T12:01:31;65.41;50.30;76.01;;
58251;Laerm;51449;51.676;5.812;2023-07-31T12:03:54;64.54;52.43;77.18;;
58251;Laerm;51449;51.676;5.812;2023-07-31T12:06:16;67.30;51.58;77.12;;
58251;Laerm;51449;51.676;5.812;2023-07-31T12:08:38;63.54;49.95;74.70;;
58251;Laerm;51449;51.676;5.812;2023-07-31T12:11:08;64.24;50.03;75.60;;
58251;Laerm;51449;51.676;5.812;2023-07-31T12:13:36;66.37;53.62;74.70;;
58251;Laerm;51449;51.676;5.812;2023-07-31T12:16:00;65.45;50.49;74.10;;
58251;Laerm;51449;51.676;5.812;2023-07-31T12:18:25;65.90;50.24;74.49;;
58251;Laerm;51449;51.676;5.812;2023-07-31T12:23:22;66.91;49.81;75.84;;
58251;Laerm;51449;51.676;5.812;2023-07-31T12:26:19;64.56;49.38;73.93;;
58251;Laerm;51449;51.676;5.812;2023-07-31T12:28:49;64.67;50.65;73.70;;
58251;Laerm;51449;51.676;5.812;2023-07-31T12:31:17;66.61;54.64;75.40;;
58251;Laerm;51449;51.676;5.812;2023-07-31T12:33:41;64.81;49.24;74.63;;
58251;Laerm;51449;51.676;5.812;2023-07-31T12:36:06;65.81;49.30;83.10;;
58251;Laerm;51449;51.676;5.812;2023-07-31T12:38:30;64.85;50.10;75.78;;
58251;Laerm;51449;51.676;5.812;2023-07-31T12:40:52;65.81;52.48;74.53;;
58251;Laerm;51449;51.676;5.812;2023-07-31T12:43:13;62.55;48.31;73.60;;
58251;Laerm;51449;51.676;5.812;2023-07-31T12:45:35;67.95;48.84;78.06;;
58251;Laerm;51449;51.676;5.812;2023-07-31T12:48:01;64.66;48.01;73.20;;
58251;Laerm;51449;51.676;5.812;2023-07-31T12:50:23;66.06;51.35;74.46;;
58251;Laerm;51449;51.676;5.812;2023-07-31T12:52:45;63.85;44.65;74.50;;
58251;Laerm;51449;51.676;5.812;2023-07-31T12:55:07;69.85;48.21;80.40;;
58251;Laerm;51449;51.676;5.812;2023-07-31T12:57:29;71.78;52.65;85.44;;
58251;Laerm;51449;51.676;5.812;2023-07-31T12:59:50;67.05;49.23;77.29;;
58251;Laerm;51449;51.676;5.812;2023-07-31T13:02:12;65.32;48.04;74.77;;
58251;Laerm;51449;51.676;5.812;2023-07-31T13:04:34;65.21;49.35;75.58;;
58251;Laerm;51449;51.676;5.812;2023-07-31T13:06:56;63.09;46.82;74.23;;
58251;Laerm;51449;51.676;5.812;2023-07-31T13:09:18;66.25;48.70;76.02;;
58251;Laerm;51449;51.676;5.812;2023-07-31T13:11:39;64.25;46.50;77.20;;
58251;Laerm;51449;51.676;5.812;2023-07-31T13:14:01;64.18;47.84;74.47;;
58251;Laerm;51449;51.676;5.812;2023-07-31T13:16:23;67.72;55.09;75.83;;
58251;Laerm;51449;51.676;5.812;2023-07-31T13:18:45;64.88;48.16;73.14;;
58251;Laerm;51449;51.676;5.812;2023-07-31T13:21:07;65.44;49.12;76.47;;
58251;Laerm;51449;51.676;5.812;2023-07-31T13:23:29;66.07;53.47;76.66;;
58251;Laerm;51449;51.676;5.812;2023-07-31T13:25:51;64.11;48.09;72.11;;
58251;Laerm;51449;51.676;5.812;2023-07-31T13:28:13;64.20;49.25;79.55;;
58251;Laerm;51449;51.676;5.812;2023-07-31T13:30:34;64.49;51.07;74.87;;